Great Missenden, United Kingdom
Current Conditions -  °F | °C
As of 2:50 AM on Monday 29 Dec 2014 (Local Time) from EGWU Reporting Station
Few Clouds Few Clouds  
Wind Chill: 27°   Ceiling: Unl
Heat Index: 27°   Visibility: 6mi
Dew Point: 25°   Wind: 3mph
Humidity: 93%   Direction: 300°WNW
Pressure: 30.65"   Gusts: NA
Location:  51.7°N, 0.71°W
Report Text: EGWU 290250Z AUTO 30003KT 9999 // FEW021/// M03/M04 Q1038
Loading
Personal Weather Stations






























Interactive Weather Map New forecast layout! Learn more

10-Day Weather Forecast

Advertisements
Track Severe Weather on mobile